createdAt,value
2023-02-06T00:00:45.520Z,4.18
2023-02-06T00:03:11.811Z,4.16
2023-02-06T00:05:38.355Z,4.10
2023-02-06T00:08:07.060Z,4.06
2023-02-06T00:10:34.032Z,4.04
2023-02-06T00:13:00.641Z,3.98
2023-02-06T00:15:27.114Z,3.94
2023-02-06T00:17:53.566Z,3.90
2023-02-06T00:20:20.073Z,3.85
2023-02-06T00:22:46.446Z,3.84
2023-02-06T00:25:12.862Z,3.81
2023-02-06T00:27:39.198Z,3.78
2023-02-06T00:30:06.456Z,3.73
2023-02-06T00:32:34.798Z,3.77
2023-02-06T00:35:01.266Z,3.71
2023-02-06T00:37:27.718Z,3.65
2023-02-06T00:39:54.125Z,3.65
2023-02-06T00:42:20.661Z,3.59
2023-02-06T00:44:47.045Z,3.60
2023-02-06T00:47:13.814Z,3.62
2023-02-06T00:49:40.189Z,3.58
2023-02-06T00:52:06.620Z,3.60
2023-02-06T00:54:32.981Z,3.54
2023-02-06T00:56:59.338Z,3.51
2023-02-06T00:59:25.774Z,3.51
2023-02-06T01:01:52.196Z,3.53
2023-02-06T01:04:18.661Z,3.50
2023-02-06T01:06:45.045Z,3.47
2023-02-06T01:09:11.455Z,3.42
2023-02-06T01:11:37.883Z,3.35
2023-02-06T01:14:04.346Z,3.30
2023-02-06T01:16:30.728Z,3.20
2023-02-06T01:18:57.152Z,3.19
2023-02-06T01:21:25.172Z,3.20
2023-02-06T01:23:53.913Z,3.19
2023-02-06T01:26:24.140Z,3.18
2023-02-06T01:28:50.626Z,3.08
2023-02-06T01:31:20.352Z,3.10
2023-02-06T01:33:47.885Z,3.10
2023-02-06T01:36:15.303Z,3.12
2023-02-06T01:38:42.431Z,3.14
2023-02-06T01:41:10.791Z,3.15
2023-02-06T01:43:42.591Z,3.19
2023-02-06T01:46:09.712Z,3.14
2023-02-06T01:48:53.537Z,3.17
2023-02-06T01:51:24.571Z,3.15
2023-02-06T01:53:59.906Z,3.18
2023-02-06T01:56:29.917Z,3.15
2023-02-06T01:59:00.164Z,3.21
2023-02-06T02:01:26.622Z,3.22
2023-02-06T02:03:59.608Z,3.29
2023-02-06T02:06:27.649Z,3.30
2023-02-06T02:08:58.236Z,3.26
2023-02-06T02:11:30.372Z,3.31
2023-02-06T02:13:57.174Z,3.33
2023-02-06T02:16:40.464Z,3.36
2023-02-06T02:19:37.212Z,3.45
2023-02-06T02:22:51.421Z,3.47
2023-02-06T02:25:39.399Z,3.51
2023-02-06T02:28:30.629Z,3.55
2023-02-06T02:31:25.694Z,3.58
2023-02-06T02:34:08.473Z,3.54
2023-02-06T02:36:57.335Z,3.58
2023-02-06T02:39:46.667Z,3.58
2023-02-06T02:42:17.015Z,3.50
2023-02-06T02:44:53.220Z,3.59
2023-02-06T02:47:23.390Z,3.61
2023-02-06T02:49:50.388Z,3.63
2023-02-06T02:52:16.807Z,3.64
2023-02-06T02:54:43.171Z,3.62
2023-02-06T02:57:14.742Z,3.66
2023-02-06T02:59:45.444Z,3.64
2023-02-06T03:02:27.532Z,3.66
2023-02-06T03:04:59.528Z,3.68
2023-02-06T03:07:43.922Z,3.68
2023-02-06T03:10:19.741Z,3.77
2023-02-06T03:12:58.237Z,3.79
2023-02-06T03:15:35.888Z,3.77
2023-02-06T03:18:16.527Z,3.72
2023-02-06T03:20:46.432Z,3.68
2023-02-06T03:23:16.916Z,3.70
2023-02-06T03:25:46.390Z,3.70
2023-02-06T03:28:27.406Z,3.72
2023-02-06T03:30:56.796Z,3.73
2023-02-06T03:33:28.645Z,3.70
2023-02-06T03:35:57.640Z,3.68
2023-02-06T03:38:24.819Z,3.68
2023-02-06T03:40:53.363Z,3.70
2023-02-06T03:43:23.625Z,3.68
2023-02-06T03:45:56.036Z,3.70
2023-02-06T03:48:29.726Z,3.67
2023-02-06T03:50:59.328Z,3.64
2023-02-06T03:53:26.563Z,3.58
2023-02-06T03:55:59.666Z,3.51
2023-02-06T03:58:26.261Z,3.44
2023-02-06T04:00:53.196Z,3.36
2023-02-06T04:03:21.413Z,3.32
2023-02-06T04:05:47.845Z,3.28
2023-02-06T04:08:14.213Z,3.30
2023-02-06T04:10:40.565Z,3.26
2023-02-06T04:13:06.937Z,3.26
2023-02-06T04:15:33.534Z,3.22
2023-02-06T04:18:01.604Z,3.14
2023-02-06T04:20:29.618Z,3.09
2023-02-06T04:22:56.708Z,3.04
2023-02-06T04:25:23.191Z,3.00
2023-02-06T04:27:50.084Z,2.98
2023-02-06T04:30:17.871Z,2.99
2023-02-06T04:32:44.411Z,2.99
2023-02-06T04:35:10.804Z,2.99
2023-02-06T04:37:37.660Z,2.96
2023-02-06T04:40:04.694Z,2.94
2023-02-06T04:42:31.106Z,2.89
2023-02-06T04:44:57.516Z,2.85
2023-02-06T04:47:23.898Z,2.81
2023-02-06T04:49:50.412Z,2.78
2023-02-06T04:52:16.767Z,2.79
2023-02-06T04:54:43.202Z,2.77
2023-02-06T04:57:09.556Z,2.79
2023-02-06T04:59:35.914Z,2.77
2023-02-06T05:02:02.380Z,2.81
2023-02-06T05:04:28.786Z,2.80
2023-02-06T05:06:55.231Z,2.79
2023-02-06T05:09:21.648Z,2.79
2023-02-06T05:11:48.034Z,2.79
2023-02-06T05:14:14.390Z,2.81
2023-02-06T05:16:40.810Z,2.80
2023-02-06T05:19:07.256Z,2.81
2023-02-06T05:21:33.695Z,2.81
2023-02-06T05:24:00.312Z,2.84
2023-02-06T05:26:26.721Z,2.83
2023-02-06T05:28:53.188Z,2.75
2023-02-06T05:31:20.289Z,2.73
2023-02-06T05:33:51.863Z,2.69
2023-02-06T05:36:20.362Z,2.64
2023-02-06T05:38:47.235Z,2.57
2023-02-06T05:41:13.819Z,2.54
2023-02-06T05:43:40.457Z,2.54
2023-02-06T05:46:07.038Z,2.50
2023-02-06T05:48:34.766Z,2.49
2023-02-06T05:51:01.720Z,2.49
2023-02-06T05:53:28.150Z,2.49
2023-02-06T05:55:54.544Z,2.47
2023-02-06T05:58:21.221Z,2.48
2023-02-06T06:00:47.655Z,2.48
2023-02-06T06:03:14.184Z,2.49
2023-02-06T06:05:41.094Z,2.51
2023-02-06T06:08:07.462Z,2.49
2023-02-06T06:10:33.910Z,2.45
2023-02-06T06:13:00.344Z,2.44
2023-02-06T06:15:26.769Z,2.51
2023-02-06T06:17:53.116Z,2.47
2023-02-06T06:20:19.583Z,2.50
2023-02-06T06:22:45.908Z,2.46
2023-02-06T06:25:12.318Z,2.47
2023-02-06T06:27:39.190Z,2.48
2023-02-06T06:30:06.056Z,2.50
2023-02-06T06:32:32.414Z,2.51
2023-02-06T06:34:58.831Z,2.51
2023-02-06T06:37:25.209Z,2.50
2023-02-06T06:39:51.636Z,2.50
2023-02-06T06:42:18.075Z,2.49
2023-02-06T06:44:44.487Z,2.50
2023-02-06T06:47:10.919Z,2.51
2023-02-06T06:49:37.385Z,2.52
2023-02-06T06:52:07.005Z,2.52
2023-02-06T06:54:35.282Z,2.54
2023-02-06T06:57:01.735Z,2.57
2023-02-06T06:59:28.173Z,2.62
2023-02-06T07:01:54.642Z,2.64
2023-02-06T07:04:21.377Z,2.66
2023-02-06T07:06:47.770Z,2.70
2023-02-06T07:09:14.588Z,2.73
2023-02-06T07:11:41.393Z,2.74
2023-02-06T07:14:08.597Z,2.76
2023-02-06T07:16:34.985Z,2.79
2023-02-06T07:19:01.615Z,2.81
2023-02-06T07:21:28.072Z,2.82
2023-02-06T07:23:54.465Z,2.84
2023-02-06T07:26:21.039Z,2.90
2023-02-06T07:28:49.670Z,2.95
2023-02-06T07:31:16.363Z,3.02
2023-02-06T07:33:42.882Z,3.10
2023-02-06T07:36:14.891Z,3.21
2023-02-06T07:38:41.339Z,3.22
2023-02-06T07:41:08.260Z,3.24
2023-02-06T07:43:34.692Z,3.32
2023-02-06T07:46:03.658Z,3.38
2023-02-06T07:48:30.786Z,3.40
2023-02-06T07:51:04.111Z,3.45
2023-02-06T07:53:30.557Z,3.46
2023-02-06T07:55:56.928Z,3.50
2023-02-06T07:58:23.376Z,3.55
2023-02-06T08:00:49.882Z,3.56
2023-02-06T08:03:16.376Z,3.62
2023-02-06T08:05:42.744Z,3.69
2023-02-06T08:08:10.632Z,3.73
2023-02-06T08:10:40.052Z,3.78
2023-02-06T08:13:07.402Z,3.78
2023-02-06T08:15:34.155Z,3.82
2023-02-06T08:18:00.812Z,3.85
2023-02-06T08:20:27.224Z,3.89
2023-02-06T08:22:54.512Z,3.92
2023-02-06T08:25:23.748Z,3.98
2023-02-06T08:27:57.334Z,4.07
2023-02-06T08:30:24.072Z,4.10
2023-02-06T08:32:50.626Z,4.16
2023-02-06T08:35:17.143Z,4.16
2023-02-06T08:37:44.052Z,4.23
2023-02-06T08:40:11.659Z,4.27
2023-02-06T08:42:38.812Z,4.31
2023-02-06T08:45:05.757Z,4.36
2023-02-06T08:47:32.161Z,4.44
2023-02-06T08:49:59.308Z,4.50
2023-02-06T08:52:27.190Z,4.56
2023-02-06T08:54:53.537Z,4.61
2023-02-06T08:57:20.347Z,4.65
2023-02-06T08:59:47.354Z,4.71
2023-02-06T09:02:13.840Z,4.78
2023-02-06T09:04:42.703Z,4.84
2023-02-06T09:07:09.152Z,4.90
2023-02-06T09:09:35.644Z,4.96
2023-02-06T09:12:03.790Z,5.03
2023-02-06T09:14:31.084Z,5.11
2023-02-06T09:16:58.335Z,5.15
2023-02-06T09:19:25.917Z,5.22
2023-02-06T09:21:52.575Z,5.32
2023-02-06T09:24:19.145Z,5.38
2023-02-06T09:26:59.038Z,5.40
2023-02-06T09:29:28.820Z,5.51
2023-02-06T09:31:57.254Z,5.55
2023-02-06T09:34:26.188Z,5.62
2023-02-06T09:36:57.869Z,5.70
2023-02-06T09:39:25.348Z,5.78
2023-02-06T09:41:55.553Z,5.87
2023-02-06T09:44:43.942Z,5.96
2023-02-06T09:47:30.150Z,6.07
2023-02-06T09:50:07.892Z,6.09
2023-02-06T09:52:37.407Z,6.17
2023-02-06T09:55:14.209Z,6.23
2023-02-06T09:57:52.653Z,6.29
2023-02-06T10:00:34.678Z,6.32
2023-02-06T10:03:39.923Z,6.44
2023-02-06T10:06:33.939Z,6.50
2023-02-06T10:09:05.826Z,6.56
2023-02-06T10:11:56.711Z,6.68
2023-02-06T10:14:44.049Z,6.77
2023-02-06T10:17:23.394Z,6.86
2023-02-06T10:20:17.922Z,6.91
2023-02-06T10:23:06.644Z,7.00
2023-02-06T10:25:37.931Z,7.02
2023-02-06T10:28:31.829Z,7.13
2023-02-06T10:31:07.340Z,7.16
2023-02-06T10:33:54.866Z,7.25
2023-02-06T10:36:54.892Z,7.39
2023-02-06T10:39:40.139Z,7.45
2023-02-06T10:42:37.504Z,7.57
2023-02-06T10:45:41.014Z,7.66
2023-02-06T10:48:19.307Z,7.70
2023-02-06T10:50:56.507Z,7.69
2023-02-06T10:53:28.947Z,7.75
2023-02-06T10:56:00.268Z,7.78
2023-02-06T10:58:35.856Z,7.86
2023-02-06T11:01:13.920Z,7.93
2023-02-06T11:04:12.730Z,8.09
2023-02-06T11:06:42.520Z,8.16
2023-02-06T11:09:10.251Z,8.20
2023-02-06T11:11:40.042Z,8.23
2023-02-06T11:14:48.853Z,8.31
2023-02-06T11:17:18.539Z,8.28
2023-02-06T11:19:45.248Z,8.32
2023-02-06T11:22:15.637Z,8.36
2023-02-06T11:25:03.384Z,8.41
2023-02-06T11:27:33.550Z,8.43
2023-02-06T11:30:07.776Z,8.37
2023-02-06T11:32:41.412Z,8.39
2023-02-06T11:35:31.974Z,8.43
2023-02-06T11:38:21.254Z,8.33
2023-02-06T11:41:00.825Z,8.29
2023-02-06T11:43:31.830Z,8.27
2023-02-06T11:46:17.498Z,8.41
2023-02-06T11:49:08.183Z,8.50
2023-02-06T11:51:54.132Z,8.59
2023-02-06T11:54:31.450Z,8.62
2023-02-06T11:57:10.302Z,8.62
2023-02-06T11:59:51.236Z,8.58
2023-02-06T12:02:26.081Z,8.55
2023-02-06T12:04:59.832Z,8.51
2023-02-06T12:07:35.553Z,8.60
2023-02-06T12:10:06.679Z,8.59
2023-02-06T12:12:42.918Z,8.66
2023-02-06T12:15:45.458Z,8.70
2023-02-06T12:18:22.090Z,8.68
2023-02-06T12:21:01.414Z,8.69
2023-02-06T12:23:50.169Z,8.78
2023-02-06T12:26:21.886Z,8.71
2023-02-06T12:28:48.249Z,8.78
2023-02-06T12:32:05.638Z,8.92
2023-02-06T12:34:54.880Z,8.95
2023-02-06T12:37:36.032Z,9.01
2023-02-06T12:40:02.543Z,9.00
2023-02-06T12:42:47.637Z,9.04
2023-02-06T12:46:10.425Z,9.08
2023-02-06T12:48:45.814Z,9.07
2023-02-06T12:51:25.841Z,9.05
2023-02-06T12:54:00.636Z,9.01
2023-02-06T12:56:34.056Z,8.99
2023-02-06T12:59:09.751Z,9.02
2023-02-06T13:01:45.593Z,9.06
2023-02-06T13:04:23.882Z,9.09
2023-02-06T13:06:56.529Z,9.01
2023-02-06T13:09:36.761Z,9.18
2023-02-06T13:12:11.570Z,9.36
2023-02-06T13:14:44.584Z,9.50
2023-02-06T13:17:19.430Z,9.78
2023-02-06T13:19:45.849Z,9.97
2023-02-06T13:22:13.367Z,10.15
2023-02-06T13:24:41.779Z,10.32
2023-02-06T13:27:08.125Z,10.33
2023-02-06T13:29:42.746Z,10.38
2023-02-06T13:32:12.320Z,10.34
2023-02-06T13:34:44.253Z,10.32
2023-02-06T13:37:26.019Z,10.18
2023-02-06T13:40:25.703Z,10.03
2023-02-06T13:43:07.585Z,9.90
2023-02-06T13:45:43.850Z,9.78
2023-02-06T13:48:38.247Z,9.71
2023-02-06T13:51:06.674Z,9.81
2023-02-06T13:54:11.128Z,9.96
2023-02-06T13:57:05.056Z,9.99
2023-02-06T13:59:55.569Z,10.10
2023-02-06T14:02:21.838Z,10.12
2023-02-06T14:04:49.960Z,10.17
2023-02-06T14:07:34.928Z,10.22
2023-02-06T14:10:31.866Z,10.27
2023-02-06T14:13:12.053Z,10.38
2023-02-06T14:15:52.080Z,10.42
2023-02-06T14:18:28.152Z,10.52
2023-02-06T14:21:09.174Z,10.51
2023-02-06T14:24:09.088Z,10.48
2023-02-06T14:27:03.526Z,10.41
2023-02-06T14:29:58.030Z,10.31
2023-02-06T14:32:48.932Z,10.21
2023-02-06T14:35:37.089Z,10.15
2023-02-06T14:38:27.868Z,10.10
2023-02-06T14:40:56.574Z,10.02
2023-02-06T14:43:25.405Z,9.96
2023-02-06T14:46:06.992Z,9.87
2023-02-06T14:48:44.132Z,9.84
2023-02-06T14:51:36.737Z,9.77
2023-02-06T14:54:31.484Z,9.68
2023-02-06T14:57:00.626Z,9.64
2023-02-06T14:59:27.342Z,9.55
2023-02-06T15:01:55.964Z,9.54
2023-02-06T15:04:23.594Z,9.56
2023-02-06T15:07:02.142Z,9.53
2023-02-06T15:09:40.355Z,9.53
2023-02-06T15:12:23.770Z,9.48
2023-02-06T15:14:55.779Z,9.42
2023-02-06T15:17:24.151Z,9.38
2023-02-06T15:19:50.584Z,9.37
2023-02-06T15:22:23.862Z,9.37
2023-02-06T15:25:04.512Z,9.32
2023-02-06T15:27:33.843Z,9.25
2023-02-06T15:30:02.786Z,9.25
2023-02-06T15:32:38.579Z,9.18
2023-02-06T15:35:20.762Z,9.13
2023-02-06T15:37:47.456Z,9.00
2023-02-06T15:40:25.552Z,8.97
2023-02-06T15:42:53.268Z,8.86
2023-02-06T15:45:23.916Z,8.82
2023-02-06T15:47:52.318Z,8.70
2023-02-06T15:50:23.775Z,8.66
2023-02-06T15:52:50.427Z,8.56
2023-02-06T15:55:35.681Z,8.50
2023-02-06T15:58:04.430Z,8.43
2023-02-06T16:00:35.880Z,8.41
2023-02-06T16:03:07.957Z,8.32
2023-02-06T16:05:41.462Z,8.25
2023-02-06T16:08:16.242Z,8.13
2023-02-06T16:10:45.363Z,8.01
2023-02-06T16:13:19.669Z,7.95
2023-02-06T16:16:04.832Z,7.84
2023-02-06T16:18:34.675Z,7.75
2023-02-06T16:21:16.449Z,7.69
2023-02-06T16:23:50.035Z,7.61
2023-02-06T16:26:27.784Z,7.50
2023-02-06T16:28:56.983Z,7.48
2023-02-06T16:31:28.450Z,7.38
2023-02-06T16:33:56.875Z,7.27
2023-02-06T16:36:24.082Z,7.20
2023-02-06T16:39:02.738Z,7.15
2023-02-06T16:41:42.119Z,7.10
2023-02-06T16:44:13.663Z,7.07
2023-02-06T16:46:40.670Z,6.96
2023-02-06T16:49:19.892Z,6.87
2023-02-06T16:51:47.740Z,6.81
2023-02-06T16:54:27.380Z,6.61
2023-02-06T16:56:56.760Z,6.48
2023-02-06T16:59:23.684Z,6.31
2023-02-06T17:01:50.096Z,6.21
2023-02-06T17:04:16.494Z,6.19
2023-02-06T17:06:44.985Z,6.19
2023-02-06T17:09:17.213Z,6.18
2023-02-06T17:11:46.640Z,6.16
2023-02-06T17:14:13.112Z,6.07
2023-02-06T17:16:44.112Z,6.05
2023-02-06T17:19:14.623Z,5.98
2023-02-06T17:21:41.147Z,5.87
2023-02-06T17:24:08.908Z,5.84
2023-02-06T17:26:35.530Z,5.74
2023-02-06T17:29:01.915Z,5.70
2023-02-06T17:31:28.682Z,5.57
2023-02-06T17:33:55.230Z,5.52
2023-02-06T17:36:29.247Z,5.49
2023-02-06T17:38:58.843Z,5.47
2023-02-06T17:41:26.691Z,5.42
2023-02-06T17:43:53.205Z,5.38
2023-02-06T17:46:19.816Z,5.29
2023-02-06T17:48:46.253Z,5.24
2023-02-06T17:51:12.792Z,5.20
2023-02-06T17:53:39.295Z,5.18
2023-02-06T17:56:14.283Z,5.18
2023-02-06T17:58:41.745Z,5.12
2023-02-06T18:01:13.661Z,5.10
2023-02-06T18:03:41.332Z,5.06
2023-02-06T18:06:08.509Z,5.02
2023-02-06T18:08:34.971Z,5.00
2023-02-06T18:11:09.628Z,4.97
2023-02-06T18:13:36.126Z,4.88
2023-02-06T18:16:02.504Z,4.82
2023-02-06T18:18:31.313Z,4.79
2023-02-06T18:20:58.619Z,4.78
2023-02-06T18:23:25.967Z,4.71
2023-02-06T18:25:52.700Z,4.69
2023-02-06T18:28:19.928Z,4.67
2023-02-06T18:30:46.688Z,4.64
2023-02-06T18:33:13.645Z,4.61
2023-02-06T18:35:44.459Z,4.55
2023-02-06T18:38:12.017Z,4.52
2023-02-06T18:40:40.387Z,4.51
2023-02-06T18:43:08.133Z,4.47
2023-02-06T18:45:37.342Z,4.45
2023-02-06T18:48:06.038Z,4.41
2023-02-06T18:50:33.742Z,4.33
2023-02-06T18:53:00.387Z,4.29
2023-02-06T18:55:27.266Z,4.24
2023-02-06T18:57:53.711Z,4.16
2023-02-06T19:00:22.220Z,4.10
2023-02-06T19:02:49.160Z,4.08
2023-02-06T19:05:15.710Z,4.03
2023-02-06T19:07:42.322Z,4.02
2023-02-06T19:10:12.949Z,4.03
2023-02-06T19:12:39.804Z,3.98
2023-02-06T19:15:06.759Z,3.97
2023-02-06T19:17:33.219Z,3.92
2023-02-06T19:20:00.108Z,3.90
2023-02-06T19:22:27.046Z,3.88
2023-02-06T19:24:53.959Z,3.85
2023-02-06T19:27:21.476Z,3.85
2023-02-06T19:29:48.835Z,3.78
2023-02-06T19:32:15.224Z,3.74
2023-02-06T19:34:43.980Z,3.75
2023-02-06T19:37:10.930Z,3.65
2023-02-06T19:39:40.272Z,3.53
2023-02-06T19:42:15.480Z,3.52
2023-02-06T19:44:42.908Z,3.50
2023-02-06T19:47:10.245Z,3.53
2023-02-06T19:49:37.712Z,3.51
2023-02-06T19:52:04.344Z,3.48
2023-02-06T19:54:31.091Z,3.49
2023-02-06T19:56:57.663Z,3.55
2023-02-06T19:59:26.993Z,3.54
2023-02-06T20:01:58.803Z,3.58
2023-02-06T20:04:29.044Z,3.54
2023-02-06T20:06:55.840Z,3.48
2023-02-06T20:09:23.074Z,3.48
2023-02-06T20:11:50.106Z,3.40
2023-02-06T20:14:17.575Z,3.33
2023-02-06T20:16:44.949Z,3.33
2023-02-06T20:19:15.597Z,3.27
2023-02-06T20:21:51.639Z,3.24
2023-02-06T20:24:21.833Z,3.16
2023-02-06T20:26:50.730Z,3.13
2023-02-06T20:29:30.116Z,3.14
2023-02-06T20:31:57.832Z,3.10
2023-02-06T20:34:25.109Z,3.05
2023-02-06T20:36:52.499Z,3.05
2023-02-06T20:39:19.784Z,3.06
2023-02-06T20:41:46.348Z,3.10
2023-02-06T20:44:13.995Z,3.12
2023-02-06T20:46:41.180Z,3.12
2023-02-06T20:49:13.974Z,3.16
2023-02-06T20:51:40.944Z,3.15
2023-02-06T20:54:07.430Z,3.15
2023-02-06T20:56:34.480Z,3.13
2023-02-06T20:59:01.461Z,3.10
2023-02-06T21:01:30.470Z,3.10
2023-02-06T21:04:03.316Z,3.07
2023-02-06T21:06:30.826Z,3.06
2023-02-06T21:09:00.261Z,3.01
2023-02-06T21:11:40.387Z,3.03
2023-02-06T21:14:07.633Z,2.99
2023-02-06T21:16:35.365Z,2.96
2023-02-06T21:19:02.658Z,3.01
2023-02-06T21:21:29.545Z,3.03
2023-02-06T21:23:56.186Z,3.07
2023-02-06T21:26:24.018Z,3.13
2023-02-06T21:28:51.115Z,3.14
2023-02-06T21:31:33.302Z,3.21
2023-02-06T21:34:05.005Z,3.25
2023-02-06T21:36:31.972Z,3.24
2023-02-06T21:39:10.364Z,3.26
2023-02-06T21:41:41.820Z,3.21
2023-02-06T21:44:08.244Z,3.20
2023-02-06T21:46:34.787Z,3.18
2023-02-06T21:49:01.369Z,3.15
2023-02-06T21:51:28.082Z,3.16
2023-02-06T21:53:54.570Z,3.13
2023-02-06T21:56:26.647Z,3.14
2023-02-06T21:58:53.865Z,3.15
2023-02-06T22:01:26.850Z,3.16
2023-02-06T22:03:53.323Z,3.08
2023-02-06T22:06:20.312Z,3.04
2023-02-06T22:08:51.764Z,3.00
2023-02-06T22:11:26.662Z,3.01
2023-02-06T22:13:57.173Z,2.96
2023-02-06T22:16:24.767Z,2.93
2023-02-06T22:18:51.562Z,2.88
2023-02-06T22:21:20.821Z,2.87
2023-02-06T22:23:49.196Z,2.85
2023-02-06T22:26:18.035Z,2.85
2023-02-06T22:28:44.980Z,2.82
2023-02-06T22:31:17.162Z,2.84
2023-02-06T22:33:43.993Z,2.81
2023-02-06T22:36:12.683Z,2.73
2023-02-06T22:38:39.853Z,2.67
2023-02-06T22:41:08.863Z,2.68
2023-02-06T22:43:37.450Z,2.69
2023-02-06T22:46:05.317Z,2.68
2023-02-06T22:48:32.039Z,2.73
2023-02-06T22:51:09.799Z,2.74
2023-02-06T22:53:40.600Z,2.76
2023-02-06T22:56:35.018Z,2.77
2023-02-06T22:59:06.023Z,2.78
2023-02-06T23:01:36.373Z,2.77
2023-02-06T23:04:04.788Z,2.73
2023-02-06T23:06:33.513Z,2.70
2023-02-06T23:09:00.733Z,2.67
2023-02-06T23:11:28.205Z,2.63
2023-02-06T23:13:57.216Z,2.58
2023-02-06T23:16:24.036Z,2.57
2023-02-06T23:18:51.033Z,2.53
2023-02-06T23:21:20.668Z,2.52
2023-02-06T23:23:47.827Z,2.51
2023-02-06T23:26:15.906Z,2.50
2023-02-06T23:28:42.718Z,2.44
2023-02-06T23:31:10.262Z,2.45
2023-02-06T23:33:37.309Z,2.41
2023-02-06T23:36:10.524Z,2.47
2023-02-06T23:38:37.163Z,2.43
2023-02-06T23:41:19.148Z,2.47
2023-02-06T23:43:53.865Z,2.45
2023-02-06T23:46:20.818Z,2.43
2023-02-06T23:48:48.175Z,2.46
2023-02-06T23:51:15.565Z,2.44
2023-02-06T23:53:42.190Z,2.39
2023-02-06T23:56:13.575Z,2.42
2023-02-06T23:58:40.367Z,2.37
